sensor_id;sensor_type;location;lat;lon;timestamp;temperature;humidity
74617;DHT22;63123;50.906;4.198;2023-10-19T00:00:34;20.00;61.10
74617;DHT22;63123;50.906;4.198;2023-10-19T00:03:01;20.00;60.70
74617;DHT22;63123;50.906;4.198;2023-10-19T00:05:34;20.00;60.60
74617;DHT22;63123;50.906;4.198;2023-10-19T00:08:01;20.00;60.50
74617;DHT22;63123;50.906;4.198;2023-10-19T00:10:30;20.00;61.20
74617;DHT22;63123;50.906;4.198;2023-10-19T00:13:03;20.00;60.80
74617;DHT22;63123;50.906;4.198;2023-10-19T00:15:33;20.00;60.00
74617;DHT22;63123;50.906;4.198;2023-10-19T00:18:00;20.00;61.40
74617;DHT22;63123;50.906;4.198;2023-10-19T00:20:38;19.90;60.10
74617;DHT22;63123;50.906;4.198;2023-10-19T00:23:06;19.90;60.80
74617;DHT22;63123;50.906;4.198;2023-10-19T00:25:32;19.90;61.00
74617;DHT22;63123;50.906;4.198;2023-10-19T00:28:00;19.90;60.50
74617;DHT22;63123;50.906;4.198;2023-10-19T00:30:29;20.00;60.90
74617;DHT22;63123;50.906;4.198;2023-10-19T00:33:01;20.00;61.00
74617;DHT22;63123;50.906;4.198;2023-10-19T00:35:30;19.90;61.10
74617;DHT22;63123;50.906;4.198;2023-10-19T00:38:07;19.90;61.40
74617;DHT22;63123;50.906;4.198;2023-10-19T00:40:49;20.00;61.40
74617;DHT22;63123;50.906;4.198;2023-10-19T00:43:25;20.00;61.40
74617;DHT22;63123;50.906;4.198;2023-10-19T00:45:51;20.00;61.60
74617;DHT22;63123;50.906;4.198;2023-10-19T00:48:17;19.90;61.40
74617;DHT22;63123;50.906;4.198;2023-10-19T00:50:43;20.00;61.10
74617;DHT22;63123;50.906;4.198;2023-10-19T00:53:09;20.00;61.70
74617;DHT22;63123;50.906;4.198;2023-10-19T00:55:38;20.00;61.50
74617;DHT22;63123;50.906;4.198;2023-10-19T00:58:03;20.00;61.70
74617;DHT22;63123;50.906;4.198;2023-10-19T01:00:35;19.90;61.60
74617;DHT22;63123;50.906;4.198;2023-10-19T01:03:08;19.90;61.30
74617;DHT22;63123;50.906;4.198;2023-10-19T01:05:35;20.00;61.40
74617;DHT22;63123;50.906;4.198;2023-10-19T01:08:03;20.00;60.70
74617;DHT22;63123;50.906;4.198;2023-10-19T01:10:40;20.00;60.90
74617;DHT22;63123;50.906;4.198;2023-10-19T01:13:05;20.00;61.50
74617;DHT22;63123;50.906;4.198;2023-10-19T01:15:31;20.00;61.10
74617;DHT22;63123;50.906;4.198;2023-10-19T01:18:02;20.00;61.30
74617;DHT22;63123;50.906;4.198;2023-10-19T01:20:29;20.00;61.60
74617;DHT22;63123;50.906;4.198;2023-10-19T01:22:58;19.90;61.70
74617;DHT22;63123;50.906;4.198;2023-10-19T01:25:46;20.00;61.90
74617;DHT22;63123;50.906;4.198;2023-10-19T01:28:16;20.00;61.40
74617;DHT22;63123;50.906;4.198;2023-10-19T01:30:42;19.90;61.70
74617;DHT22;63123;50.906;4.198;2023-10-19T01:33:10;20.00;61.90
74617;DHT22;63123;50.906;4.198;2023-10-19T01:35:41;19.90;61.30
74617;DHT22;63123;50.906;4.198;2023-10-19T01:38:26;20.00;61.10
74617;DHT22;63123;50.906;4.198;2023-10-19T01:40:51;19.90;61.50
74617;DHT22;63123;50.906;4.198;2023-10-19T01:43:19;20.00;61.80
74617;DHT22;63123;50.906;4.198;2023-10-19T01:45:53;19.90;61.10
74617;DHT22;63123;50.906;4.198;2023-10-19T01:48:22;20.00;61.80
74617;DHT22;63123;50.906;4.198;2023-10-19T01:50:53;19.90;61.80
74617;DHT22;63123;50.906;4.198;2023-10-19T01:53:19;20.00;61.90
74617;DHT22;63123;50.906;4.198;2023-10-19T01:55:50;19.90;61.90
74617;DHT22;63123;50.906;4.198;2023-10-19T01:58:23;20.00;62.00
74617;DHT22;63123;50.906;4.198;2023-10-19T02:00:50;19.90;61.60
74617;DHT22;63123;50.906;4.198;2023-10-19T02:03:19;19.90;61.80
74617;DHT22;63123;50.906;4.198;2023-10-19T02:05:46;19.90;61.80
74617;DHT22;63123;50.906;4.198;2023-10-19T02:08:15;20.00;61.90
74617;DHT22;63123;50.906;4.198;2023-10-19T02:10:45;20.00;61.90
74617;DHT22;63123;50.906;4.198;2023-10-19T02:13:11;19.90;61.80
74617;DHT22;63123;50.906;4.198;2023-10-19T02:15:39;19.90;61.90
74617;DHT22;63123;50.906;4.198;2023-10-19T02:18:04;20.00;62.00
74617;DHT22;63123;50.906;4.198;2023-10-19T02:20:30;19.90;61.90
74617;DHT22;63123;50.906;4.198;2023-10-19T02:22:57;19.90;61.80
74617;DHT22;63123;50.906;4.198;2023-10-19T02:25:25;19.90;61.90
74617;DHT22;63123;50.906;4.198;2023-10-19T02:27:53;19.90;62.00
74617;DHT22;63123;50.906;4.198;2023-10-19T02:30:19;19.90;62.10
74617;DHT22;63123;50.906;4.198;2023-10-19T02:32:44;19.90;62.00
74617;DHT22;63123;50.906;4.198;2023-10-19T02:35:13;19.90;61.90
74617;DHT22;63123;50.906;4.198;2023-10-19T02:37:39;19.90;61.80
74617;DHT22;63123;50.906;4.198;2023-10-19T02:40:05;19.90;62.00
74617;DHT22;63123;50.906;4.198;2023-10-19T02:42:48;20.00;62.00
74617;DHT22;63123;50.906;4.198;2023-10-19T02:45:17;19.90;61.90
74617;DHT22;63123;50.906;4.198;2023-10-19T02:47:43;19.90;62.20
74617;DHT22;63123;50.906;4.198;2023-10-19T02:50:09;19.90;62.10
74617;DHT22;63123;50.906;4.198;2023-10-19T02:52:48;19.90;62.10
74617;DHT22;63123;50.906;4.198;2023-10-19T02:55:14;20.00;61.90
74617;DHT22;63123;50.906;4.198;2023-10-19T02:57:41;19.90;62.10
74617;DHT22;63123;50.906;4.198;2023-10-19T03:00:12;19.90;62.10
74617;DHT22;63123;50.906;4.198;2023-10-19T03:02:39;19.90;62.10
74617;DHT22;63123;50.906;4.198;2023-10-19T03:05:05;19.90;62.00
74617;DHT22;63123;50.906;4.198;2023-10-19T03:07:38;20.00;62.10
74617;DHT22;63123;50.906;4.198;2023-10-19T03:10:04;19.90;62.00
74617;DHT22;63123;50.906;4.198;2023-10-19T03:12:30;19.90;62.00
74617;DHT22;63123;50.906;4.198;2023-10-19T03:14:56;20.00;62.10
74617;DHT22;63123;50.906;4.198;2023-10-19T03:17:21;19.90;62.10
74617;DHT22;63123;50.906;4.198;2023-10-19T03:19:48;19.90;62.10
74617;DHT22;63123;50.906;4.198;2023-10-19T03:22:14;19.90;62.00
74617;DHT22;63123;50.906;4.198;2023-10-19T03:24:39;19.90;62.20
74617;DHT22;63123;50.906;4.198;2023-10-19T03:27:09;19.90;62.10
74617;DHT22;63123;50.906;4.198;2023-10-19T03:29:47;19.90;62.00
74617;DHT22;63123;50.906;4.198;2023-10-19T03:32:20;19.90;62.00
74617;DHT22;63123;50.906;4.198;2023-10-19T03:34:52;19.90;62.10
74617;DHT22;63123;50.906;4.198;2023-10-19T03:37:23;19.90;62.10
74617;DHT22;63123;50.906;4.198;2023-10-19T03:39:50;19.90;62.10
74617;DHT22;63123;50.906;4.198;2023-10-19T03:42:16;19.90;62.00
74617;DHT22;63123;50.906;4.198;2023-10-19T03:44:42;20.00;62.20
74617;DHT22;63123;50.906;4.198;2023-10-19T03:47:13;19.90;62.10
74617;DHT22;63123;50.906;4.198;2023-10-19T03:49:46;20.00;62.00
74617;DHT22;63123;50.906;4.198;2023-10-19T03:52:12;20.00;62.10
74617;DHT22;63123;50.906;4.198;2023-10-19T03:54:38;19.90;62.10
74617;DHT22;63123;50.906;4.198;2023-10-19T03:57:07;19.90;62.20
74617;DHT22;63123;50.906;4.198;2023-10-19T03:59:45;19.90;62.10
74617;DHT22;63123;50.906;4.198;2023-10-19T04:02:10;19.90;62.20
74617;DHT22;63123;50.906;4.198;2023-10-19T04:04:39;19.90;62.10
74617;DHT22;63123;50.906;4.198;2023-10-19T04:07:09;19.90;62.20
74617;DHT22;63123;50.906;4.198;2023-10-19T04:09:43;19.90;62.20
74617;DHT22;63123;50.906;4.198;2023-10-19T04:12:27;19.90;61.70
74617;DHT22;63123;50.906;4.198;2023-10-19T04:14:56;19.90;62.10
74617;DHT22;63123;50.906;4.198;2023-10-19T04:17:22;19.90;62.10
74617;DHT22;63123;50.906;4.198;2023-10-19T04:19:49;19.90;62.20
74617;DHT22;63123;50.906;4.198;2023-10-19T04:22:16;19.90;62.40
74617;DHT22;63123;50.906;4.198;2023-10-19T04:24:48;19.90;62.80
74617;DHT22;63123;50.906;4.198;2023-10-19T04:27:13;19.90;62.20
74617;DHT22;63123;50.906;4.198;2023-10-19T04:29:40;19.90;62.30
74617;DHT22;63123;50.906;4.198;2023-10-19T04:32:07;19.90;62.30
74617;DHT22;63123;50.906;4.198;2023-10-19T04:34:33;19.90;62.30
74617;DHT22;63123;50.906;4.198;2023-10-19T04:37:01;19.90;62.20
74617;DHT22;63123;50.906;4.198;2023-10-19T04:39:28;19.90;62.20
74617;DHT22;63123;50.906;4.198;2023-10-19T04:41:55;19.90;62.20
74617;DHT22;63123;50.906;4.198;2023-10-19T04:44:21;19.90;62.40
74617;DHT22;63123;50.906;4.198;2023-10-19T04:46:48;19.90;62.30
74617;DHT22;63123;50.906;4.198;2023-10-19T04:49:13;19.90;62.20
74617;DHT22;63123;50.906;4.198;2023-10-19T04:51:39;19.90;62.30
74617;DHT22;63123;50.906;4.198;2023-10-19T04:54:05;19.90;62.30
74617;DHT22;63123;50.906;4.198;2023-10-19T04:56:31;19.90;62.40
74617;DHT22;63123;50.906;4.198;2023-10-19T04:58:57;19.90;62.30
74617;DHT22;63123;50.906;4.198;2023-10-19T05:01:22;19.90;62.40
74617;DHT22;63123;50.906;4.198;2023-10-19T05:03:48;19.90;62.30
74617;DHT22;63123;50.906;4.198;2023-10-19T05:06:13;19.90;61.90
74617;DHT22;63123;50.906;4.198;2023-10-19T05:08:39;19.90;62.40
74617;DHT22;63123;50.906;4.198;2023-10-19T05:11:05;19.90;62.40
74617;DHT22;63123;50.906;4.198;2023-10-19T05:13:31;19.90;62.50
74617;DHT22;63123;50.906;4.198;2023-10-19T05:15:56;19.90;62.30
74617;DHT22;63123;50.906;4.198;2023-10-19T05:18:24;19.90;62.30
74617;DHT22;63123;50.906;4.198;2023-10-19T05:20:51;19.90;61.80
74617;DHT22;63123;50.906;4.198;2023-10-19T05:23:21;19.90;62.10
74617;DHT22;63123;50.906;4.198;2023-10-19T05:25:47;19.90;62.30
74617;DHT22;63123;50.906;4.198;2023-10-19T05:28:13;19.90;62.20
74617;DHT22;63123;50.906;4.198;2023-10-19T05:30:39;19.90;62.30
74617;DHT22;63123;50.906;4.198;2023-10-19T05:33:05;19.90;62.30
74617;DHT22;63123;50.906;4.198;2023-10-19T05:35:31;19.90;62.40
74617;DHT22;63123;50.906;4.198;2023-10-19T05:38:00;19.90;62.30
74617;DHT22;63123;50.906;4.198;2023-10-19T05:40:26;19.90;62.30
74617;DHT22;63123;50.906;4.198;2023-10-19T05:42:56;19.90;62.40
74617;DHT22;63123;50.906;4.198;2023-10-19T05:45:22;19.90;62.60
74617;DHT22;63123;50.906;4.198;2023-10-19T05:47:47;19.90;62.30
74617;DHT22;63123;50.906;4.198;2023-10-19T05:50:13;19.90;62.50
74617;DHT22;63123;50.906;4.198;2023-10-19T05:52:40;19.90;62.40
74617;DHT22;63123;50.906;4.198;2023-10-19T05:55:06;19.90;62.70
74617;DHT22;63123;50.906;4.198;2023-10-19T05:57:31;19.90;62.60
74617;DHT22;63123;50.906;4.198;2023-10-19T05:59:57;19.90;62.60
74617;DHT22;63123;50.906;4.198;2023-10-19T06:02:23;19.90;62.50
74617;DHT22;63123;50.906;4.198;2023-10-19T06:04:49;19.90;62.50
74617;DHT22;63123;50.906;4.198;2023-10-19T06:07:14;19.90;62.60
74617;DHT22;63123;50.906;4.198;2023-10-19T06:09:40;19.90;62.60
74617;DHT22;63123;50.906;4.198;2023-10-19T06:12:05;19.90;62.70
74617;DHT22;63123;50.906;4.198;2023-10-19T06:14:34;19.90;62.70
74617;DHT22;63123;50.906;4.198;2023-10-19T06:16:59;19.90;62.70
74617;DHT22;63123;50.906;4.198;2023-10-19T06:19:26;19.90;62.70
74617;DHT22;63123;50.906;4.198;2023-10-19T06:21:52;19.90;62.20
74617;DHT22;63123;50.906;4.198;2023-10-19T06:24:17;19.90;62.70
74617;DHT22;63123;50.906;4.198;2023-10-19T06:26:44;19.90;62.60
74617;DHT22;63123;50.906;4.198;2023-10-19T06:29:09;19.90;62.70
74617;DHT22;63123;50.906;4.198;2023-10-19T06:31:35;19.90;62.70
74617;DHT22;63123;50.906;4.198;2023-10-19T06:34:01;19.90;63.30
74617;DHT22;63123;50.906;4.198;2023-10-19T06:36:27;19.90;62.70
74617;DHT22;63123;50.906;4.198;2023-10-19T06:38:54;19.90;62.80
74617;DHT22;63123;50.906;4.198;2023-10-19T06:41:20;19.90;62.80
74617;DHT22;63123;50.906;4.198;2023-10-19T06:43:46;19.90;62.90
74617;DHT22;63123;50.906;4.198;2023-10-19T06:46:11;19.90;62.80
74617;DHT22;63123;50.906;4.198;2023-10-19T06:48:37;19.90;62.80
74617;DHT22;63123;50.906;4.198;2023-10-19T06:51:03;19.90;62.90
74617;DHT22;63123;50.906;4.198;2023-10-19T06:53:28;19.90;62.80
74617;DHT22;63123;50.906;4.198;2023-10-19T06:55:54;19.90;62.80
74617;DHT22;63123;50.906;4.198;2023-10-19T06:58:20;19.90;62.90
74617;DHT22;63123;50.906;4.198;2023-10-19T07:00:46;19.90;62.90
74617;DHT22;63123;50.906;4.198;2023-10-19T07:03:21;19.90;63.00
74617;DHT22;63123;50.906;4.198;2023-10-19T07:05:48;19.90;62.90
74617;DHT22;63123;50.906;4.198;2023-10-19T07:08:15;19.90;63.10
74617;DHT22;63123;50.906;4.198;2023-10-19T07:10:40;19.90;62.60
74617;DHT22;63123;50.906;4.198;2023-10-19T07:13:06;19.90;62.90
74617;DHT22;63123;50.906;4.198;2023-10-19T07:15:31;19.90;62.90
74617;DHT22;63123;50.906;4.198;2023-10-19T07:17:57;19.90;62.90
74617;DHT22;63123;50.906;4.198;2023-10-19T07:20:23;19.90;62.80
74617;DHT22;63123;50.906;4.198;2023-10-19T07:22:59;19.90;62.90
74617;DHT22;63123;50.906;4.198;2023-10-19T07:25:28;19.90;61.70
74617;DHT22;63123;50.906;4.198;2023-10-19T07:27:54;19.90;61.70
74617;DHT22;63123;50.906;4.198;2023-10-19T07:30:20;20.00;61.90
74617;DHT22;63123;50.906;4.198;2023-10-19T07:32:50;19.90;61.60
74617;DHT22;63123;50.906;4.198;2023-10-19T07:35:25;19.90;61.90
74617;DHT22;63123;50.906;4.198;2023-10-19T07:37:56;20.00;62.00
74617;DHT22;63123;50.906;4.198;2023-10-19T07:40:22;19.90;62.20
74617;DHT22;63123;50.906;4.198;2023-10-19T07:42:49;19.90;62.70
74617;DHT22;63123;50.906;4.198;2023-10-19T07:45:17;19.90;62.40
74617;DHT22;63123;50.906;4.198;2023-10-19T07:47:42;20.00;62.10
74617;DHT22;63123;50.906;4.198;2023-10-19T07:50:12;19.90;62.00
74617;DHT22;63123;50.906;4.198;2023-10-19T07:52:45;19.90;61.90
74617;DHT22;63123;50.906;4.198;2023-10-19T07:55:12;19.90;62.20
74617;DHT22;63123;50.906;4.198;2023-10-19T07:57:38;19.90;62.30
74617;DHT22;63123;50.906;4.198;2023-10-19T08:00:06;19.90;62.90
74617;DHT22;63123;50.906;4.198;2023-10-19T08:02:34;19.90;62.40
74617;DHT22;63123;50.906;4.198;2023-10-19T08:05:00;19.90;63.00
74617;DHT22;63123;50.906;4.198;2023-10-19T08:07:28;20.00;62.30
74617;DHT22;63123;50.906;4.198;2023-10-19T08:09:53;19.90;62.50
74617;DHT22;63123;50.906;4.198;2023-10-19T08:12:20;19.90;63.00
74617;DHT22;63123;50.906;4.198;2023-10-19T08:14:48;19.90;62.40
74617;DHT22;63123;50.906;4.198;2023-10-19T08:17:14;19.90;62.20
74617;DHT22;63123;50.906;4.198;2023-10-19T08:19:39;19.90;62.90
74617;DHT22;63123;50.906;4.198;2023-10-19T08:22:05;19.90;62.90
74617;DHT22;63123;50.906;4.198;2023-10-19T08:24:30;19.90;62.70
74617;DHT22;63123;50.906;4.198;2023-10-19T08:27:00;20.00;62.30
74617;DHT22;63123;50.906;4.198;2023-10-19T08:29:26;19.90;62.90
74617;DHT22;63123;50.906;4.198;2023-10-19T08:31:51;19.90;62.50
74617;DHT22;63123;50.906;4.198;2023-10-19T08:34:17;20.00;62.50
74617;DHT22;63123;50.906;4.198;2023-10-19T08:36:44;20.00;62.60
74617;DHT22;63123;50.906;4.198;2023-10-19T08:39:10;20.00;62.50
74617;DHT22;63123;50.906;4.198;2023-10-19T08:41:38;19.90;62.50
74617;DHT22;63123;50.906;4.198;2023-10-19T08:44:05;19.90;62.20
74617;DHT22;63123;50.906;4.198;2023-10-19T08:46:42;19.90;62.60
74617;DHT22;63123;50.906;4.198;2023-10-19T08:49:11;20.00;62.50
74617;DHT22;63123;50.906;4.198;2023-10-19T08:51:38;20.00;62.50
74617;DHT22;63123;50.906;4.198;2023-10-19T08:54:07;19.90;63.00
74617;DHT22;63123;50.906;4.198;2023-10-19T08:56:32;20.00;62.70
74617;DHT22;63123;50.906;4.198;2023-10-19T08:59:01;19.90;62.90
74617;DHT22;63123;50.906;4.198;2023-10-19T09:01:27;20.00;63.00
74617;DHT22;63123;50.906;4.198;2023-10-19T09:03:53;19.90;63.00
74617;DHT22;63123;50.906;4.198;2023-10-19T09:06:20;19.90;62.70
74617;DHT22;63123;50.906;4.198;2023-10-19T09:08:46;19.90;62.70
74617;DHT22;63123;50.906;4.198;2023-10-19T09:11:13;20.00;62.80
74617;DHT22;63123;50.906;4.198;2023-10-19T09:13:46;19.90;63.20
74617;DHT22;63123;50.906;4.198;2023-10-19T09:16:15;19.90;63.00
74617;DHT22;63123;50.906;4.198;2023-10-19T09:18:41;19.90;63.20
74617;DHT22;63123;50.906;4.198;2023-10-19T09:21:07;19.90;63.20
74617;DHT22;63123;50.906;4.198;2023-10-19T09:23:33;19.90;63.00
74617;DHT22;63123;50.906;4.198;2023-10-19T09:25:59;19.90;62.70
74617;DHT22;63123;50.906;4.198;2023-10-19T09:28:37;20.00;63.30
74617;DHT22;63123;50.906;4.198;2023-10-19T09:31:03;19.90;63.10
74617;DHT22;63123;50.906;4.198;2023-10-19T09:33:28;19.90;63.10
74617;DHT22;63123;50.906;4.198;2023-10-19T09:35:55;19.90;63.30
74617;DHT22;63123;50.906;4.198;2023-10-19T09:38:26;19.90;63.20
74617;DHT22;63123;50.906;4.198;2023-10-19T09:40:51;19.90;62.90
74617;DHT22;63123;50.906;4.198;2023-10-19T09:46:06;19.90;63.10
74617;DHT22;63123;50.906;4.198;2023-10-19T09:48:31;19.90;63.00
74617;DHT22;63123;50.906;4.198;2023-10-19T09:51:01;19.90;63.00
74617;DHT22;63123;50.906;4.198;2023-10-19T09:53:28;20.00;63.10
74617;DHT22;63123;50.906;4.198;2023-10-19T09:55:55;19.90;62.90
74617;DHT22;63123;50.906;4.198;2023-10-19T09:58:23;19.90;63.30
74617;DHT22;63123;50.906;4.198;2023-10-19T10:00:50;19.90;63.00
74617;DHT22;63123;50.906;4.198;2023-10-19T10:03:58;19.90;62.80
74617;DHT22;63123;50.906;4.198;2023-10-19T10:06:05;19.90;63.00
74617;DHT22;63123;50.906;4.198;2023-10-19T10:08:30;20.00;62.80
74617;DHT22;63123;50.906;4.198;2023-10-19T10:10:57;19.90;63.50
74617;DHT22;63123;50.906;4.198;2023-10-19T10:15:52;20.00;63.10
74617;DHT22;63123;50.906;4.198;2023-10-19T10:18:18;19.90;63.10
74617;DHT22;63123;50.906;4.198;2023-10-19T10:20:44;19.90;63.20
74617;DHT22;63123;50.906;4.198;2023-10-19T10:23:19;19.90;62.80
74617;DHT22;63123;50.906;4.198;2023-10-19T10:25:50;19.90;63.20
74617;DHT22;63123;50.906;4.198;2023-10-19T10:28:19;19.90;63.90
74617;DHT22;63123;50.906;4.198;2023-10-19T10:33:41;20.00;63.60
74617;DHT22;63123;50.906;4.198;2023-10-19T10:36:07;20.00;63.30
74617;DHT22;63123;50.906;4.198;2023-10-19T10:38:33;19.90;63.80
74617;DHT22;63123;50.906;4.198;2023-10-19T10:40:59;19.90;63.30
74617;DHT22;63123;50.906;4.198;2023-10-19T10:43:24;20.00;63.40
74617;DHT22;63123;50.906;4.198;2023-10-19T10:45:50;20.00;63.30
74617;DHT22;63123;50.906;4.198;2023-10-19T10:48:18;20.00;63.10
74617;DHT22;63123;50.906;4.198;2023-10-19T10:50:46;19.90;63.00
74617;DHT22;63123;50.906;4.198;2023-10-19T10:53:12;19.90;63.30
74617;DHT22;63123;50.906;4.198;2023-10-19T10:55:38;20.00;63.50
74617;DHT22;63123;50.906;4.198;2023-10-19T10:58:04;20.00;63.30
74617;DHT22;63123;50.906;4.198;2023-10-19T11:00:30;19.90;63.70
74617;DHT22;63123;50.906;4.198;2023-10-19T11:02:59;20.00;63.20
74617;DHT22;63123;50.906;4.198;2023-10-19T11:05:25;19.90;63.20
74617;DHT22;63123;50.906;4.198;2023-10-19T11:10:28;19.90;62.90
74617;DHT22;63123;50.906;4.198;2023-10-19T11:13:01;19.90;63.10
74617;DHT22;63123;50.906;4.198;2023-10-19T11:15:26;19.90;63.50
74617;DHT22;63123;50.906;4.198;2023-10-19T11:17:52;20.00;63.40
74617;DHT22;63123;50.906;4.198;2023-10-19T11:20:21;19.90;63.00
74617;DHT22;63123;50.906;4.198;2023-10-19T11:22:48;19.90;63.60
74617;DHT22;63123;50.906;4.198;2023-10-19T11:25:24;19.90;63.70
74617;DHT22;63123;50.906;4.198;2023-10-19T11:27:51;20.00;63.50
74617;DHT22;63123;50.906;4.198;2023-10-19T11:30:27;19.90;63.50
74617;DHT22;63123;50.906;4.198;2023-10-19T11:32:54;19.90;63.30
74617;DHT22;63123;50.906;4.198;2023-10-19T11:35:23;20.00;63.60
74617;DHT22;63123;50.906;4.198;2023-10-19T11:37:53;19.90;63.60
74617;DHT22;63123;50.906;4.198;2023-10-19T11:40:20;20.00;64.20
74617;DHT22;63123;50.906;4.198;2023-10-19T11:42:45;20.00;63.50
74617;DHT22;63123;50.906;4.198;2023-10-19T11:45:12;19.90;63.80
74617;DHT22;63123;50.906;4.198;2023-10-19T11:47:37;19.90;63.40
74617;DHT22;63123;50.906;4.198;2023-10-19T11:50:03;20.00;64.00
74617;DHT22;63123;50.906;4.198;2023-10-19T11:52:29;19.90;63.40
74617;DHT22;63123;50.906;4.198;2023-10-19T11:54:55;19.90;63.60
74617;DHT22;63123;50.906;4.198;2023-10-19T11:57:21;20.00;63.50
74617;DHT22;63123;50.906;4.198;2023-10-19T11:59:47;20.00;63.50
74617;DHT22;63123;50.906;4.198;2023-10-19T12:02:20;19.90;63.50
74617;DHT22;63123;50.906;4.198;2023-10-19T12:04:46;19.90;63.70
74617;DHT22;63123;50.906;4.198;2023-10-19T12:07:12;19.90;63.40
74617;DHT22;63123;50.906;4.198;2023-10-19T12:09:37;20.00;64.70
74617;DHT22;63123;50.906;4.198;2023-10-19T12:12:06;20.00;63.80
74617;DHT22;63123;50.906;4.198;2023-10-19T12:14:32;20.00;63.90
74617;DHT22;63123;50.906;4.198;2023-10-19T12:17:00;20.00;64.20
74617;DHT22;63123;50.906;4.198;2023-10-19T12:19:27;19.90;63.80
74617;DHT22;63123;50.906;4.198;2023-10-19T12:21:55;19.90;64.40
74617;DHT22;63123;50.906;4.198;2023-10-19T12:24:20;20.00;63.90
74617;DHT22;63123;50.906;4.198;2023-10-19T12:26:46;19.90;64.30
74617;DHT22;63123;50.906;4.198;2023-10-19T12:29:12;19.90;63.50
74617;DHT22;63123;50.906;4.198;2023-10-19T12:31:40;20.00;64.20
74617;DHT22;63123;50.906;4.198;2023-10-19T12:34:06;19.90;63.70
74617;DHT22;63123;50.906;4.198;2023-10-19T12:36:31;20.00;63.80
74617;DHT22;63123;50.906;4.198;2023-10-19T12:38:57;19.90;64.70
74617;DHT22;63123;50.906;4.198;2023-10-19T12:41:23;20.00;63.80
74617;DHT22;63123;50.906;4.198;2023-10-19T12:43:50;19.90;63.70
74617;DHT22;63123;50.906;4.198;2023-10-19T12:46:17;19.90;64.00
74617;DHT22;63123;50.906;4.198;2023-10-19T12:48:44;20.00;64.40
74617;DHT22;63123;50.906;4.198;2023-10-19T12:51:12;20.00;63.90
74617;DHT22;63123;50.906;4.198;2023-10-19T12:53:38;19.90;63.80
74617;DHT22;63123;50.906;4.198;2023-10-19T12:56:04;20.00;64.00
74617;DHT22;63123;50.906;4.198;2023-10-19T12:58:30;20.00;64.40
74617;DHT22;63123;50.906;4.198;2023-10-19T13:00:57;19.90;64.00
74617;DHT22;63123;50.906;4.198;2023-10-19T13:03:24;20.00;64.10
74617;DHT22;63123;50.906;4.198;2023-10-19T13:05:52;20.00;63.80
74617;DHT22;63123;50.906;4.198;2023-10-19T13:08:18;20.00;64.30
74617;DHT22;63123;50.906;4.198;2023-10-19T13:10:46;19.90;64.10
74617;DHT22;63123;50.906;4.198;2023-10-19T13:13:12;20.00;63.80
74617;DHT22;63123;50.906;4.198;2023-10-19T13:15:42;20.00;64.60
74617;DHT22;63123;50.906;4.198;2023-10-19T13:18:08;20.00;64.10
74617;DHT22;63123;50.906;4.198;2023-10-19T13:20:38;20.00;64.00
74617;DHT22;63123;50.906;4.198;2023-10-19T13:23:05;20.00;64.10
74617;DHT22;63123;50.906;4.198;2023-10-19T13:25:32;20.00;64.00
74617;DHT22;63123;50.906;4.198;2023-10-19T13:28:07;20.00;64.30
74617;DHT22;63123;50.906;4.198;2023-10-19T13:30:37;20.00;64.20
74617;DHT22;63123;50.906;4.198;2023-10-19T13:33:06;20.00;64.10
74617;DHT22;63123;50.906;4.198;2023-10-19T13:35:37;20.00;64.10
74617;DHT22;63123;50.906;4.198;2023-10-19T13:38:06;20.00;64.00
74617;DHT22;63123;50.906;4.198;2023-10-19T13:40:36;20.00;64.00
74617;DHT22;63123;50.906;4.198;2023-10-19T13:43:03;20.00;64.10
74617;DHT22;63123;50.906;4.198;2023-10-19T13:45:33;20.00;64.40
74617;DHT22;63123;50.906;4.198;2023-10-19T13:48:08;20.00;65.40
74617;DHT22;63123;50.906;4.198;2023-10-19T13:50:35;20.00;64.40
74617;DHT22;63123;50.906;4.198;2023-10-19T13:53:00;20.00;64.20
74617;DHT22;63123;50.906;4.198;2023-10-19T13:55:26;20.00;64.30
74617;DHT22;63123;50.906;4.198;2023-10-19T13:57:52;20.00;64.20
74617;DHT22;63123;50.906;4.198;2023-10-19T14:00:20;20.00;64.60
74617;DHT22;63123;50.906;4.198;2023-10-19T14:02:52;20.00;64.50
74617;DHT22;63123;50.906;4.198;2023-10-19T14:05:19;20.00;64.70
74617;DHT22;63123;50.906;4.198;2023-10-19T14:07:45;20.00;64.40
74617;DHT22;63123;50.906;4.198;2023-10-19T14:10:12;20.00;64.60
74617;DHT22;63123;50.906;4.198;2023-10-19T14:12:38;20.00;65.30
74617;DHT22;63123;50.906;4.198;2023-10-19T14:15:16;20.00;65.00
74617;DHT22;63123;50.906;4.198;2023-10-19T14:17:45;20.00;64.80
74617;DHT22;63123;50.906;4.198;2023-10-19T14:20:11;20.00;64.70
74617;DHT22;63123;50.906;4.198;2023-10-19T14:22:41;20.00;64.70
74617;DHT22;63123;50.906;4.198;2023-10-19T14:25:07;20.00;65.80
74617;DHT22;63123;50.906;4.198;2023-10-19T14:27:33;20.00;64.50
74617;DHT22;63123;50.906;4.198;2023-10-19T14:30:00;20.00;64.70
74617;DHT22;63123;50.906;4.198;2023-10-19T14:32:25;20.00;64.80
74617;DHT22;63123;50.906;4.198;2023-10-19T14:34:52;20.00;64.40
74617;DHT22;63123;50.906;4.198;2023-10-19T14:37:19;20.00;64.60
74617;DHT22;63123;50.906;4.198;2023-10-19T14:39:44;20.00;64.60
74617;DHT22;63123;50.906;4.198;2023-10-19T14:42:10;20.00;64.80
74617;DHT22;63123;50.906;4.198;2023-10-19T14:44:36;20.00;64.80
74617;DHT22;63123;50.906;4.198;2023-10-19T14:47:01;20.00;64.80
74617;DHT22;63123;50.906;4.198;2023-10-19T14:49:29;20.00;65.10
74617;DHT22;63123;50.906;4.198;2023-10-19T14:51:55;20.00;65.10
74617;DHT22;63123;50.906;4.198;2023-10-19T14:54:21;20.00;64.80
74617;DHT22;63123;50.906;4.198;2023-10-19T14:56:47;20.00;64.90
74617;DHT22;63123;50.906;4.198;2023-10-19T14:59:13;20.00;64.90
74617;DHT22;63123;50.906;4.198;2023-10-19T15:01:39;20.00;64.80
74617;DHT22;63123;50.906;4.198;2023-10-19T15:04:04;20.00;64.60
74617;DHT22;63123;50.906;4.198;2023-10-19T15:06:31;20.00;64.80
74617;DHT22;63123;50.906;4.198;2023-10-19T15:08:56;20.00;65.40
74617;DHT22;63123;50.906;4.198;2023-10-19T15:11:22;20.00;64.80
74617;DHT22;63123;50.906;4.198;2023-10-19T15:13:50;20.00;64.80
74617;DHT22;63123;50.906;4.198;2023-10-19T15:16:16;20.00;64.80
74617;DHT22;63123;50.906;4.198;2023-10-19T15:18:42;20.00;64.80
74617;DHT22;63123;50.906;4.198;2023-10-19T15:21:08;20.00;64.70
74617;DHT22;63123;50.906;4.198;2023-10-19T15:23:34;20.00;64.70
74617;DHT22;63123;50.906;4.198;2023-10-19T15:25:59;20.00;65.30
74617;DHT22;63123;50.906;4.198;2023-10-19T15:28:25;20.00;65.10
74617;DHT22;63123;50.906;4.198;2023-10-19T15:30:50;20.00;65.90
74617;DHT22;63123;50.906;4.198;2023-10-19T15:33:16;20.00;65.90
74617;DHT22;63123;50.906;4.198;2023-10-19T15:35:43;20.00;66.20
74617;DHT22;63123;50.906;4.198;2023-10-19T15:38:12;20.00;65.50
74617;DHT22;63123;50.906;4.198;2023-10-19T15:40:38;20.00;66.40
74617;DHT22;63123;50.906;4.198;2023-10-19T15:43:05;20.00;65.40